Time;durP1;ratioP1;P1;durP2;ratioP2;P2;SDS_P1;SDS_P2;PMS_P1;PMS_P2;Temp;Humidity;BMP_temperature;BMP_pressure;BME280_temperature;BME280_humidity;BME280_pressure;Samples;Min_cycle;Max_cycle;Signal;HPM_P1;HPM_P2
2023/05/18 00:02:05;;;;;;;8.82;4.55;;;;;;;7.25;100.00;102770.09;4965990;28;20034;-73
2023/05/18 00:04:35;;;;;;;15.75;4.10;;;;;;;7.20;100.00;102769.31;4969067;28;20043;-74
2023/05/18 00:07:03;;;;;;;11.25;4.05;;;;;;;6.91;100.00;102773.34;4970341;28;20039;-71
2023/05/18 00:09:30;;;;;;;13.40;5.05;;;;;;;7.08;100.00;102769.50;4977715;28;20031;-72
2023/05/18 00:11:57;;;;;;;12.00;4.43;;;;;;;6.98;100.00;102769.69;4970223;28;20027;-75
2023/05/18 00:14:22;;;;;;;12.02;3.60;;;;;;;6.94;100.00;102760.03;4964504;28;20039;-73
2023/05/18 00:16:48;;;;;;;15.40;4.10;;;;;;;6.82;100.00;102764.66;4967941;28;20039;-74
2023/05/18 00:19:14;;;;;;;15.52;5.15;;;;;;;6.92;100.00;102768.91;4985462;28;20046;-73
2023/05/18 00:21:47;;;;;;;15.40;4.93;;;;;;;6.86;100.00;102764.59;4979383;28;20066;-74
2023/05/18 00:24:16;;;;;;;;;;;;;;;6.72;100.00;102766.59;4980237;28;20874;-71
2023/05/18 00:26:43;;;;;;;9.93;4.45;;;;;;;6.82;100.00;102765.53;4978583;28;19974;-74
2023/05/18 00:29:10;;;;;;;9.52;4.00;;;;;;;6.96;100.00;102765.31;4967722;28;20036;-74
2023/05/18 00:31:37;;;;;;;12.23;4.68;;;;;;;6.85;100.00;102762.84;4980172;28;20036;-73
2023/05/18 00:34:08;;;;;;;8.00;4.35;;;;;;;6.84;100.00;102769.06;4977972;28;20039;-74
2023/05/18 00:36:35;;;;;;;10.27;4.93;;;;;;;6.88;100.00;102775.19;4971173;28;20027;-74
2023/05/18 00:39:01;;;;;;;13.48;4.72;;;;;;;6.82;100.00;102773.47;4981713;28;20043;-74
2023/05/18 00:41:28;;;;;;;14.93;5.53;;;;;;;6.84;100.00;102770.84;4981695;28;21030;-74
2023/05/18 00:43:54;;;;;;;11.15;4.50;;;;;;;6.80;100.00;102774.44;4963484;28;20038;-74
2023/05/18 00:46:21;;;;;;;10.30;4.72;;;;;;;6.66;100.00;102772.00;4951610;28;20035;-73
2023/05/18 00:48:49;;;;;;;12.25;5.20;;;;;;;6.63;100.00;102780.00;4983973;28;20163;-73
2023/05/18 00:51:15;;;;;;;13.50;5.15;;;;;;;6.49;100.00;102781.09;4969490;28;20117;-73
2023/05/18 00:53:42;;;;;;;18.10;5.40;;;;;;;6.34;100.00;102780.44;4956720;28;20039;-73
2023/05/18 00:56:09;;;;;;;11.55;4.88;;;;;;;6.44;100.00;102782.94;4968100;28;20122;-73
2023/05/18 00:58:37;;;;;;;12.38;4.75;;;;;;;6.64;100.00;102782.63;4959093;28;20039;-74
2023/05/18 01:01:04;;;;;;;14.20;5.88;;;;;;;6.52;100.00;102777.50;4971568;28;20591;-74
2023/05/18 01:03:33;;;;;;;18.50;5.32;;;;;;;6.52;100.00;102777.50;4971479;28;20181;-71
2023/05/18 01:05:58;;;;;;;15.13;5.40;;;;;;;6.59;100.00;102778.31;4963998;28;20089;-72
2023/05/18 01:08:26;;;;;;;8.50;4.72;;;;;;;6.58;100.00;102773.91;4965540;28;20039;-74
2023/05/18 01:11:33;;;;;;;10.93;5.25;;;;;;;6.49;100.00;102780.22;4964786;28;20089;-71
2023/05/18 01:14:10;;;;;;;18.88;5.28;;;;;;;6.52;100.00;102774.84;4967607;28;20070;-72
2023/05/18 01:16:52;;;;;;;16.77;6.97;;;;;;;6.47;100.00;102779.34;4968625;28;20069;-74
2023/05/18 01:19:54;;;;;;;17.02;5.72;;;;;;;6.43;100.00;102777.66;4965759;28;20042;-74
2023/05/18 01:22:55;;;;;;;19.90;6.13;;;;;;;6.52;100.00;102781.94;4979978;28;20142;-74
2023/05/18 01:25:39;;;;;;;13.60;5.65;;;;;;;6.37;100.00;102790.97;4951857;28;20045;-73
2023/05/18 01:28:12;;;;;;;12.50;5.28;;;;;;;6.31;100.00;102783.13;4953044;28;20035;-74
2023/05/18 01:30:43;;;;;;;12.25;5.43;;;;;;;6.28;100.00;102796.44;4984650;28;20142;-73
2023/05/18 01:33:11;;;;;;;12.95;5.20;;;;;;;6.21;100.00;102796.50;4974910;28;20038;-72
2023/05/18 01:35:37;;;;;;;13.20;7.40;;;;;;;6.17;100.00;102788.59;4962391;28;20039;-72
2023/05/18 01:38:03;;;;;;;11.95;5.80;;;;;;;6.18;100.00;102793.91;4983345;28;20046;-71
2023/05/18 01:40:42;;;;;;;16.45;6.82;;;;;;;6.20;100.00;102794.75;4978521;28;20184;-73
2023/05/18 01:43:14;;;;;;;16.98;6.43;;;;;;;6.13;100.00;102793.09;4958236;28;20038;-74
2023/05/18 01:45:43;;;;;;;;;;;;;;;5.89;100.00;102791.59;4960444;28;20190;-73
2023/05/18 01:48:10;;;;;;;14.18;6.00;;;;;;;5.74;100.00;102790.91;4985731;28;19925;-74
2023/05/18 01:50:40;;;;;;;21.25;6.43;;;;;;;5.97;100.00;102800.38;4977529;28;20036;-73
2023/05/18 01:53:38;;;;;;;20.00;6.53;;;;;;;6.00;100.00;102802.09;4979848;28;20030;-74
2023/05/18 01:56:07;;;;;;;14.85;6.35;;;;;;;5.87;100.00;102795.16;4985936;28;20034;-75
2023/05/18 01:58:36;;;;;;;12.50;6.07;;;;;;;5.64;100.00;102792.78;4982168;28;20042;-73
2023/05/18 02:01:04;;;;;;;11.85;5.82;;;;;;;5.70;100.00;102800.66;4969615;28;20210;-73
2023/05/18 02:03:32;;;;;;;14.93;6.78;;;;;;;5.62;100.00;102794.56;4961388;28;20038;-73
2023/05/18 02:05:58;;;;;;;25.70;7.78;;;;;;;5.69;100.00;102793.63;4968462;28;20046;-74
2023/05/18 02:08:24;;;;;;;14.93;6.57;;;;;;;5.58;100.00;102791.09;4974792;28;20031;-74
2023/05/18 02:10:51;;;;;;;14.57;6.90;;;;;;;5.56;100.00;102797.28;4975668;28;20662;-74
2023/05/18 02:13:16;;;;;;;14.20;6.43;;;;;;;5.67;100.00;102793.63;4975123;28;20078;-73
2023/05/18 02:15:43;;;;;;;15.07;7.05;;;;;;;5.56;100.00;102794.63;4973570;28;20046;-73
2023/05/18 02:18:10;;;;;;;13.73;6.20;;;;;;;5.68;100.00;102795.38;4977971;28;20034;-73
2023/05/18 02:20:36;;;;;;;17.40;6.82;;;;;;;5.71;100.00;102792.69;4966790;28;20050;-73
2023/05/18 02:23:03;;;;;;;15.38;6.63;;;;;;;5.76;100.00;102794.41;4973352;28;21014;-74
2023/05/18 02:25:28;;;;;;;19.50;7.60;;;;;;;5.74;100.00;102790.91;4969878;28;20121;-73
2023/05/18 02:27:54;;;;;;;20.45;7.95;;;;;;;5.63;100.00;102791.03;4976932;28;20102;-72
2023/05/18 02:30:20;;;;;;;14.73;7.55;;;;;;;5.62;100.00;102786.63;4989969;28;20067;-73
2023/05/18 02:32:46;;;;;;;17.83;6.68;;;;;;;5.65;100.00;102786.59;4968460;28;20053;-72
2023/05/18 02:35:11;;;;;;;11.63;6.43;;;;;;;5.51;100.00;102788.50;4970950;28;20039;-72
2023/05/18 02:37:42;;;;;;;18.38;6.97;;;;;;;5.41;100.00;102785.09;4969829;28;20045;-73
2023/05/18 02:40:13;;;;;;;14.95;7.30;;;;;;;5.46;100.00;102783.28;4990008;28;20047;-72
2023/05/18 02:42:40;;;;;;;13.20;6.38;;;;;;;5.51;100.00;102783.22;4989127;28;20031;-72
2023/05/18 02:45:06;;;;;;;12.65;6.68;;;;;;;5.49;100.00;102783.25;4983637;28;20046;-72
2023/05/18 02:47:33;;;;;;;14.50;6.60;;;;;;;5.48;100.00;102785.94;4980890;28;20047;-73
2023/05/18 02:49:59;;;;;;;17.17;7.57;;;;;;;5.49;100.00;102777.97;4981071;28;20035;-73
2023/05/18 02:52:24;;;;;;;19.45;7.95;;;;;;;5.28;100.00;102781.72;4975871;28;20035;-72
2023/05/18 02:54:53;;;;;;;16.80;7.65;;;;;;;5.25;100.00;102773.78;4975000;28;20998;-71
2023/05/18 02:57:25;;;;;;;19.85;8.65;;;;;;;5.24;100.00;102779.13;4965938;28;20043;-72
2023/05/18 03:00:11;;;;;;;19.05;7.75;;;;;;;5.19;100.00;102782.66;4964079;28;20046;-75
2023/05/18 03:02:39;;;;;;;16.33;7.95;;;;;;;5.23;100.00;102777.38;4986621;28;20275;-72
2023/05/18 03:05:06;;;;;;;16.63;6.55;;;;;;;5.29;100.00;102780.81;4986596;28;21226;-75
2023/05/18 03:07:31;;;;;;;16.95;8.50;;;;;;;5.14;100.00;102775.69;4972562;28;20038;-74
2023/05/18 03:10:01;;;;;;;18.40;7.40;;;;;;;5.33;100.00;102782.53;4959926;28;20031;-73
2023/05/18 03:12:26;;;;;;;19.08;8.30;;;;;;;5.33;100.00;102777.25;4975753;28;20038;-72
2023/05/18 03:14:52;;;;;;;17.92;8.15;;;;;;;5.26;100.00;102786.13;4966606;28;20226;-73
2023/05/18 03:17:17;;;;;;;15.07;8.18;;;;;;;5.30;100.00;102782.56;4966886;28;20794;-72
2023/05/18 03:19:43;;;;;;;15.57;7.10;;;;;;;5.25;100.00;102778.22;4976170;28;20614;-73
2023/05/18 03:22:08;;;;;;;19.83;8.65;;;;;;;5.14;100.00;102783.59;4962966;28;20039;-74
2023/05/18 03:24:39;;;;;;;18.98;8.07;;;;;;;5.38;100.00;102780.72;4963990;28;20703;-73
2023/05/18 03:27:11;;;;;;;15.05;7.70;;;;;;;5.44;100.00;102779.78;4964446;28;20031;-75
2023/05/18 03:29:37;;;;;;;15.77;7.60;;;;;;;5.42;100.00;102774.50;4983104;28;20086;-73
2023/05/18 03:32:03;;;;;;;14.65;7.88;;;;;;;5.46;100.00;102784.16;4954774;28;20901;-74
2023/05/18 03:34:29;;;;;;;16.40;8.48;;;;;;;5.42;100.00;102781.53;4953488;28;20035;-72
2023/05/18 03:36:54;;;;;;;14.35;7.68;;;;;;;5.51;100.00;102781.44;4961900;28;20086;-74
2023/05/18 03:39:20;;;;;;;22.02;9.02;;;;;;;5.46;100.00;102788.56;4965783;28;20146;-75
2023/05/18 03:41:46;;;;;;;18.42;8.60;;;;;;;5.55;100.00;102790.25;4981417;28;20035;-73
2023/05/18 03:44:13;;;;;;;21.70;8.32;;;;;;;5.43;100.00;102783.31;4969542;28;20034;-73
2023/05/18 03:46:39;;;;;;;19.35;8.27;;;;;;;5.36;100.00;102781.63;4940648;28;20479;-74
2023/05/18 03:49:06;;;;;;;19.75;8.27;;;;;;;5.36;100.00;102786.91;4972899;28;20047;-74
2023/05/18 03:51:36;;;;;;;16.63;8.27;;;;;;;5.38;100.00;102785.16;4960900;28;20042;-74
2023/05/18 03:54:03;;;;;;;16.25;7.60;;;;;;;5.52;100.00;102790.25;4983647;28;20142;-74
2023/05/18 03:56:30;;;;;;;19.08;7.53;;;;;;;5.58;100.00;102787.56;4979658;28;20137;-75
2023/05/18 03:58:57;;;;;;;18.27;8.60;;;;;;;5.68;100.00;102784.81;4964248;28;20074;-70
2023/05/18 04:01:23;;;;;;;14.52;8.10;;;;;;;5.80;100.00;102786.41;4961057;28;20027;-72
2023/05/18 04:03:50;;;;;;;21.52;8.23;;;;;;;6.07;100.00;102784.34;4963685;28;20039;-71
2023/05/18 04:06:16;;;;;;;19.50;8.02;;;;;;;5.98;100.00;102785.34;4981202;28;20086;-72
2023/05/18 04:08:42;;;;;;;17.30;8.07;;;;;;;6.70;100.00;102785.19;4977343;28;20221;-74
2023/05/18 04:11:08;;;;;;;17.08;7.82;;;;;;;6.86;100.00;102772.53;4971696;28;20493;-75
2023/05/18 04:13:37;;;;;;;13.80;8.32;;;;;;;6.52;100.00;102788.09;4969418;28;20039;-74
2023/05/18 04:16:03;;;;;;;14.27;7.28;;;;;;;7.23;100.00;102785.19;4972296;28;20035;-75
2023/05/18 04:18:30;;;;;;;14.10;7.13;;;;;;;7.23;100.00;102783.41;4983095;28;20043;-72
2023/05/18 04:20:56;;;;;;;14.50;6.45;;;;;;;6.79;100.00;102785.94;4968552;28;20031;-73
2023/05/18 04:23:23;;;;;;;17.23;8.13;;;;;;;7.58;100.00;102788.91;4984936;28;20046;-73
2023/05/18 04:25:48;;;;;;;19.15;7.65;;;;;;;8.12;100.00;102797.53;4948487;28;20085;-73
2023/05/18 04:28:15;;;;;;;19.48;7.32;;;;;;;7.62;100.00;102798.59;4987415;28;20054;-72
2023/05/18 04:30:40;;;;;;;16.52;6.80;;;;;;;8.05;100.00;102793.28;4982028;28;20047;-73
2023/05/18 04:33:06;;;;;;;15.68;6.93;;;;;;;8.02;100.00;102802.16;4986597;28;20035;-72
2023/05/18 04:35:31;;;;;;;13.43;6.88;;;;;;;7.86;100.00;102808.72;4985217;28;20833;-72
2023/05/18 04:37:57;;;;;;;19.45;6.40;;;;;;;8.01;100.00;102802.22;4960311;28;20030;-72
2023/05/18 04:40:24;;;;;;;19.30;6.80;;;;;;;8.74;100.00;102802.38;4969679;28;20049;-74
2023/05/18 04:42:50;;;;;;;19.65;6.18;;;;;;;8.54;100.00;102806.38;4975452;28;21034;-71
2023/05/18 04:45:24;;;;;;;13.13;6.63;;;;;;;7.87;100.00;102810.47;4976257;28;20325;-73
2023/05/18 04:47:53;;;;;;;10.40;6.05;;;;;;;7.78;100.00;102815.94;4985081;28;20057;-74
2023/05/18 04:50:24;;;;;;;16.13;6.75;;;;;;;7.82;100.00;102825.63;4983921;28;20042;-74
2023/05/18 04:52:50;;;;;;;13.75;6.55;;;;;;;7.69;100.00;102821.47;4961093;28;20054;-73
2023/05/18 04:55:26;;;;;;;19.88;7.07;;;;;;;8.42;100.00;102819.94;4978863;28;21124;-74
2023/05/18 04:57:56;;;;;;;16.10;6.57;;;;;;;9.51;100.00;102806.59;4959999;28;20043;-74
2023/05/18 05:00:27;;;;;;;12.13;6.95;;;;;;;9.55;100.00;102806.47;4965154;28;20046;-74
2023/05/18 05:02:54;;;;;;;17.33;5.80;;;;;;;9.61;94.96;102816.09;4983649;28;20871;-72
2023/05/18 05:05:21;;;;;;;10.68;6.03;;;;;;;10.71;89.82;102803.94;4979021;28;20027;-74
2023/05/18 05:07:48;;;;;;;16.38;6.15;;;;;;;10.03;87.37;102808.63;4960768;28;20035;-74
2023/05/18 05:10:14;;;;;;;18.17;5.88;;;;;;;9.82;88.49;102809.28;4984031;28;20035;-74
2023/05/18 05:12:40;;;;;;;16.92;6.03;;;;;;;10.75;83.18;102810.94;4963718;28;20034;-74
2023/05/18 05:15:06;;;;;;;13.38;5.50;;;;;;;10.70;82.25;102815.53;4969930;28;20046;-74
2023/05/18 05:17:33;;;;;;;12.65;5.35;;;;;;;10.96;82.18;102820.03;4964125;28;20031;-73
2023/05/18 05:19:58;;;;;;;15.32;5.95;;;;;;;11.51;78.33;102820.81;4969090;28;20038;-74
2023/05/18 05:22:24;;;;;;;13.68;5.88;;;;;;;12.05;76.25;102819.72;4969323;28;20054;-74
2023/05/18 05:24:50;;;;;;;16.08;5.25;;;;;;;11.71;76.82;102820.94;4980670;28;20037;-73
2023/05/18 05:27:16;;;;;;;15.35;5.38;;;;;;;11.44;75.13;102816.59;4954087;28;20035;-73
2023/05/18 05:29:43;;;;;;;12.38;5.05;;;;;;;10.68;78.34;102817.38;4977633;28;20043;-73
2023/05/18 05:32:08;;;;;;;9.75;4.85;;;;;;;11.18;79.93;102815.69;4977996;28;20043;-73
2023/05/18 05:34:34;;;;;;;12.70;5.50;;;;;;;11.86;77.71;102817.75;4980742;28;20027;-73
2023/05/18 05:37:00;;;;;;;14.45;5.63;;;;;;;11.46;76.11;102822.75;4969101;28;21080;-73
2023/05/18 05:39:25;;;;;;;11.07;4.80;;;;;;;11.76;76.18;102826.13;4967887;28;20138;-73
2023/05/18 05:41:52;;;;;;;13.30;5.05;;;;;;;11.60;76.99;102816.00;4949587;28;20039;-73
2023/05/18 05:44:18;;;;;;;12.50;4.45;;;;;;;11.59;75.21;102816.91;4977640;28;20042;-73
2023/05/18 05:46:44;;;;;;;18.63;4.75;;;;;;;12.15;72.92;102818.47;4983715;28;20031;-72
2023/05/18 05:49:11;;;;;;;12.52;4.45;;;;;;;11.77;73.46;102812.72;4941851;28;20089;-73
2023/05/18 05:51:37;;;;;;;15.25;4.45;;;;;;;11.14;74.81;102816.72;4969852;28;20039;-72
2023/05/18 05:54:03;;;;;;;12.75;4.13;;;;;;;10.95;75.45;102819.16;4974590;28;20769;-73
2023/05/18 05:56:29;;;;;;;14.13;4.80;;;;;;;11.11;76.33;102808.81;4965601;28;20059;-72
2023/05/18 05:58:54;;;;;;;17.27;4.45;;;;;;;11.51;76.09;102816.31;4983428;28;20135;-73
2023/05/18 06:01:20;;;;;;;14.85;4.28;;;;;;;11.47;75.09;102813.81;4983109;28;20724;-73
2023/05/18 06:03:47;;;;;;;10.43;4.60;;;;;;;11.34;74.79;102813.34;4957859;28;20075;-73
2023/05/18 06:06:13;;;;;;;12.63;4.22;;;;;;;11.90;72.88;102815.84;4974848;28;20042;-72
2023/05/18 06:08:42;;;;;;;15.88;4.10;;;;;;;12.11;72.50;102822.19;4983950;28;20035;-73
2023/05/18 06:11:08;;;;;;;14.50;4.68;;;;;;;12.03;72.65;102817.09;4984486;28;20039;-72
2023/05/18 06:13:34;;;;;;;14.52;3.92;;;;;;;11.78;71.26;102816.25;4979996;28;20050;-73
2023/05/18 06:16:00;;;;;;;12.93;4.72;;;;;;;11.84;72.81;102821.41;4983111;28;20033;-73
2023/05/18 06:18:26;;;;;;;17.25;4.40;;;;;;;11.81;72.33;102819.69;4965051;28;20409;-71
2023/05/18 06:20:56;;;;;;;18.00;4.97;;;;;;;12.28;70.74;102817.03;4978644;28;20040;-73
2023/05/18 06:23:22;;;;;;;19.05;4.00;;;;;;;12.20;70.36;102813.81;4981997;28;20034;-73
2023/05/18 06:26:08;;;;;;;14.50;3.88;;;;;;;11.60;69.57;102825.81;4962270;28;20039;-74
2023/05/18 06:28:36;;;;;;;14.77;4.70;;;;;;;11.28;72.13;102817.13;4973286;28;20047;-72
2023/05/18 06:31:25;;;;;;;13.85;4.28;;;;;;;11.74;71.93;102819.94;4964424;28;20035;-72
2023/05/18 06:34:00;;;;;;;19.27;4.18;;;;;;;11.63;73.46;102823.88;4952289;28;20166;-72
2023/05/18 06:36:26;;;;;;;13.73;3.95;;;;;;;11.66;72.23;102817.56;4982241;28;20067;-73
2023/05/18 06:38:51;;;;;;;12.85;3.80;;;;;;;11.44;71.10;102824.59;4962396;28;20039;-73
2023/05/18 06:41:17;;;;;;;14.93;4.07;;;;;;;11.78;70.85;102819.78;4984103;28;20037;-72
2023/05/18 06:43:43;;;;;;;12.75;4.13;;;;;;;11.88;68.33;102826.56;4970008;28;20043;-72
2023/05/18 06:46:23;;;;;;;14.40;4.50;;;;;;;11.96;69.79;102828.09;4949135;28;20033;-73
2023/05/18 06:48:52;;;;;;;18.90;4.43;;;;;;;12.00;70.49;102819.91;4962226;28;21082;-73
2023/05/18 06:51:19;;;;;;;17.05;4.45;;;;;;;11.91;71.12;102836.28;4973418;28;20039;-72
2023/05/18 06:53:45;;;;;;;13.05;4.35;;;;;;;11.75;69.23;102840.44;4951524;28;20035;-72
2023/05/18 06:56:11;;;;;;;15.60;4.10;;;;;;;12.05;71.01;102843.78;4982796;28;20497;-72
2023/05/18 06:58:40;;;;;;;17.73;4.88;;;;;;;11.61;70.80;102839.13;4966372;28;20043;-73
2023/05/18 07:01:07;;;;;;;18.38;5.75;;;;;;;12.28;71.06;102834.91;4976158;28;20050;-72
2023/05/18 07:03:36;;;;;;;13.00;4.30;;;;;;;12.04;69.39;102826.88;4976864;28;20035;-73
2023/05/18 07:06:06;;;;;;;17.80;5.07;;;;;;;12.16;69.09;102833.56;4980473;28;20153;-73
2023/05/18 07:08:35;;;;;;;17.10;4.95;;;;;;;11.66;68.54;102855.00;4968123;28;20062;-73
2023/05/18 07:11:02;;;;;;;18.27;4.70;;;;;;;11.75;68.78;102835.09;4964697;28;20047;-73
2023/05/18 07:13:28;;;;;;;15.90;5.10;;;;;;;11.59;67.87;102838.28;4968323;28;20046;-73
2023/05/18 07:15:54;;;;;;;15.85;5.07;;;;;;;12.00;69.90;102827.94;4959853;28;20135;-73
2023/05/18 07:18:20;;;;;;;16.88;5.18;;;;;;;12.33;66.49;102840.94;4966533;28;20078;-73
2023/05/18 07:20:46;;;;;;;13.07;5.03;;;;;;;12.59;67.74;102835.44;4980391;28;20043;-72
2023/05/18 07:23:12;;;;;;;17.98;5.38;;;;;;;11.84;67.53;102850.81;4962401;28;20034;-73
2023/05/18 07:25:37;;;;;;;16.15;5.22;;;;;;;12.13;68.17;102850.59;4965175;28;20039;-72
2023/05/18 07:28:06;;;;;;;20.00;5.35;;;;;;;12.09;67.34;102848.97;4969017;28;20142;-73
2023/05/18 07:30:31;;;;;;;19.58;5.45;;;;;;;12.23;69.12;102850.25;4964233;28;20043;-72
2023/05/18 07:32:57;;;;;;;20.08;5.28;;;;;;;12.20;69.07;102843.25;4962747;28;20118;-72
2023/05/18 07:35:25;;;;;;;16.70;5.05;;;;;;;12.17;67.64;102852.22;4971050;28;20715;-72
2023/05/18 07:37:52;;;;;;;14.63;5.00;;;;;;;12.32;69.31;102844.56;4965866;28;20154;-72
2023/05/18 07:40:20;;;;;;;15.82;4.68;;;;;;;12.09;67.55;102848.09;4964838;28;21080;-73
2023/05/18 07:42:46;;;;;;;11.95;5.03;;;;;;;11.93;69.76;102861.16;4972286;28;20046;-72
2023/05/18 07:45:12;;;;;;;19.67;5.50;;;;;;;12.14;68.54;102848.78;4979747;28;20046;-72
2023/05/18 07:47:37;;;;;;;20.23;5.53;;;;;;;12.44;69.58;102852.09;4976693;28;20051;-72
2023/05/18 07:50:04;;;;;;;18.25;5.30;;;;;;;12.41;70.28;102850.44;4982430;28;20042;-73
2023/05/18 07:52:30;;;;;;;16.23;5.07;;;;;;;12.72;66.60;102854.56;4959428;28;20043;-74
2023/05/18 07:54:58;;;;;;;21.23;5.47;;;;;;;12.51;65.20;102858.09;4966356;28;20858;-73
2023/05/18 07:57:24;;;;;;;16.02;5.15;;;;;;;12.11;65.73;102860.50;4967083;28;21085;-73
2023/05/18 07:59:50;;;;;;;12.00;4.85;;;;;;;12.09;65.85;102862.34;4966808;28;20051;-73
2023/05/18 08:02:18;;;;;;;14.52;4.90;;;;;;;12.28;66.28;102857.16;4963496;28;20059;-74
2023/05/18 08:04:44;;;;;;;13.27;5.15;;;;;;;12.55;65.87;102862.38;4963156;28;20082;-73
2023/05/18 08:07:11;;;;;;;10.48;5.03;;;;;;;13.19;66.82;102857.09;4966275;28;20588;-74
2023/05/18 08:09:37;;;;;;;16.52;5.30;;;;;;;13.04;65.08;102855.06;4968524;28;20904;-75
2023/05/18 08:12:03;;;;;;;13.20;5.40;;;;;;;13.29;64.38;102854.94;4968949;28;20050;-74
2023/05/18 08:14:31;;;;;;;21.90;5.43;;;;;;;13.09;64.30;102856.59;4974062;28;20041;-75
2023/05/18 08:16:57;;;;;;;17.30;4.95;;;;;;;13.39;63.24;102854.47;4964846;28;20409;-74
2023/05/18 08:19:23;;;;;;;15.00;4.80;;;;;;;13.44;62.39;102856.94;4964554;28;20050;-75
2023/05/18 08:21:48;;;;;;;18.70;4.43;;;;;;;13.69;62.43;102862.13;4968917;28;20038;-74
2023/05/18 08:24:14;;;;;;;16.45;5.50;;;;;;;13.31;62.10;102866.47;4968937;28;20094;-74
2023/05/18 08:26:39;;;;;;;16.60;4.93;;;;;;;13.59;61.41;102866.13;4964424;28;20050;-73
2023/05/18 08:29:09;;;;;;;17.58;4.28;;;;;;;13.40;61.68;102852.66;4979057;28;20531;-74
2023/05/18 08:31:38;;;;;;;16.95;4.15;;;;;;;13.13;61.82;102860.91;4968330;28;20043;-74
2023/05/18 08:34:11;;;;;;;14.15;4.45;;;;;;;13.60;60.24;102854.47;4966936;28;20042;-75
2023/05/18 08:36:36;;;;;;;13.88;4.30;;;;;;;13.21;61.17;102855.25;4965870;28;20035;-73
2023/05/18 08:39:04;;;;;;;15.15;4.85;;;;;;;13.09;63.38;102859.28;4968045;28;20050;-74
2023/05/18 08:41:37;;;;;;;14.23;4.30;;;;;;;13.00;63.75;102856.97;4967341;28;20066;-72
2023/05/18 08:44:16;;;;;;;14.88;4.70;;;;;;;12.66;65.03;102866.41;4978879;28;20035;-75
2023/05/18 08:46:47;;;;;;;11.75;4.15;;;;;;;12.52;63.31;102863.38;4949115;28;20067;-75
2023/05/18 08:49:18;;;;;;;13.32;4.72;;;;;;;12.41;62.34;102854.91;4959410;28;20051;-72
2023/05/18 08:51:58;;;;;;;18.48;4.40;;;;;;;12.72;63.92;102843.00;4966214;28;20039;-74
2023/05/18 08:54:23;;;;;;;17.95;4.45;;;;;;;12.80;65.18;102848.88;4966467;28;20039;-75
2023/05/18 08:56:51;;;;;;;15.00;4.32;;;;;;;12.86;64.11;102846.84;4972315;28;20042;-74
2023/05/18 08:59:22;;;;;;;11.50;4.53;;;;;;;13.16;62.81;102839.34;4965329;28;20043;-72
2023/05/18 09:01:49;;;;;;;12.75;4.32;;;;;;;13.37;62.31;102842.94;4959159;28;20031;-72
2023/05/18 09:04:20;;;;;;;20.88;4.63;;;;;;;13.20;60.69;102837.41;4983425;28;20089;-74
2023/05/18 09:06:47;;;;;;;16.10;4.90;;;;;;;13.74;61.78;102838.66;4961662;28;20031;-75
2023/05/18 09:09:14;;;;;;;14.50;4.43;;;;;;;13.01;62.06;102847.16;4968191;28;20102;-75
2023/05/18 09:11:40;;;;;;;20.30;4.82;;;;;;;12.77;63.86;102838.31;4965042;28;20070;-74
2023/05/18 09:14:09;;;;;;;13.90;4.13;;;;;;;12.70;61.54;102840.34;4964913;28;20041;-75
2023/05/18 09:16:35;;;;;;;11.20;4.13;;;;;;;13.34;60.83;102828.81;4963991;28;20082;-74
2023/05/18 09:19:01;;;;;;;15.63;4.20;;;;;;;13.22;61.57;102830.22;4968292;28;20081;-74
2023/05/18 09:21:31;;;;;;;16.80;4.13;;;;;;;12.82;62.25;102839.00;4959525;28;20129;-75
2023/05/18 09:23:59;;;;;;;12.15;3.80;;;;;;;13.44;63.00;102828.34;4964148;28;20424;-74
2023/05/18 09:26:26;;;;;;;16.30;4.38;;;;;;;13.16;61.81;102817.91;4977442;28;20130;-73
2023/05/18 09:28:52;;;;;;;14.30;4.55;;;;;;;14.05;63.51;102824.72;4962461;28;20098;-74
2023/05/18 09:31:20;;;;;;;15.93;4.72;;;;;;;14.18;63.02;102822.34;4965516;28;20058;-73
2023/05/18 09:33:47;;;;;;;13.02;4.15;;;;;;;14.49;60.02;102819.97;4962380;28;20039;-75
2023/05/18 09:36:14;;;;;;;13.55;4.18;;;;;;;13.48;59.98;102818.38;4979902;28;20046;-74
2023/05/18 09:38:44;;;;;;;12.63;3.78;;;;;;;14.35;63.66;102811.66;4960704;28;20055;-73
2023/05/18 09:41:16;;;;;;;15.73;4.40;;;;;;;15.03;58.44;102801.22;4966427;28;20046;-74
2023/05/18 09:43:44;;;;;;;14.75;4.20;;;;;;;14.88;59.54;102810.91;4964428;28;20031;-73
2023/05/18 09:46:11;;;;;;;17.73;3.97;;;;;;;14.54;59.80;102810.84;4957614;28;20039;-75
2023/05/18 09:48:44;;;;;;;17.48;4.57;;;;;;;14.36;59.07;102812.56;4965941;28;20595;-75
2023/05/18 09:51:16;;;;;;;12.13;4.00;;;;;;;14.24;60.43;102808.63;4961827;28;20139;-71
2023/05/18 09:53:51;;;;;;;14.50;4.03;;;;;;;14.57;61.05;102800.81;4964707;28;20039;-75
2023/05/18 09:56:18;;;;;;;15.27;3.83;;;;;;;14.97;63.01;102799.72;4965502;28;20109;-73
2023/05/18 09:58:45;;;;;;;12.65;3.90;;;;;;;14.55;60.49;102805.38;4980174;28;20148;-73
2023/05/18 10:01:11;;;;;;;14.02;4.57;;;;;;;13.78;59.44;102807.22;4967938;28;20066;-73
2023/05/18 10:03:37;;;;;;;15.20;4.40;;;;;;;14.27;61.73;102813.88;4967390;28;20624;-75
2023/05/18 10:06:08;;;;;;;9.52;3.00;;;;;;;13.94;58.93;102805.56;4981870;28;20042;-76
2023/05/18 10:08:36;;;;;;;9.65;3.75;;;;;;;14.00;57.29;102789.19;4961491;28;20043;-72
2023/05/18 10:11:06;;;;;;;13.35;4.45;;;;;;;13.95;58.31;102802.81;4968662;28;20883;-75
2023/05/18 10:13:34;;;;;;;13.95;4.10;;;;;;;13.88;59.40;102792.44;4963643;28;21014;-72
2023/05/18 10:16:06;;;;;;;10.02;3.78;;;;;;;13.86;58.87;102800.56;4964403;28;20047;-76
2023/05/18 10:18:38;;;;;;;11.55;3.80;;;;;;;13.91;58.29;102792.31;4964106;28;20042;-76
2023/05/18 10:21:07;;;;;;;8.55;3.92;;;;;;;13.93;57.34;102795.78;4963958;28;20035;-75
2023/05/18 10:23:36;;;;;;;15.50;4.43;;;;;;;14.42;60.47;102788.09;4964255;28;20117;-74
2023/05/18 10:26:06;;;;;;;15.40;4.43;;;;;;;14.17;60.00;102791.09;4967226;28;20035;-75
2023/05/18 10:28:40;;;;;;;17.02;3.95;;;;;;;14.08;60.12;102791.53;4964488;28;20082;-76
2023/05/18 10:31:07;;;;;;;12.15;4.28;;;;;;;13.79;61.98;102798.22;4970793;28;20039;-76
2023/05/18 10:33:39;;;;;;;14.50;4.93;;;;;;;13.72;62.43;102792.28;4969657;28;20034;-73
2023/05/18 10:36:07;;;;;;;15.05;4.55;;;;;;;14.44;62.81;102781.72;4966891;28;20034;-72
2023/05/18 10:38:41;;;;;;;14.95;4.68;;;;;;;14.41;62.78;102781.00;4959437;28;20046;-72
2023/05/18 10:41:08;;;;;;;14.32;4.65;;;;;;;14.50;57.86;102772.50;4967910;28;20043;-72
2023/05/18 10:43:35;;;;;;;9.20;4.07;;;;;;;13.87;60.42;102779.97;4970100;28;20031;-73
2023/05/18 10:46:02;;;;;;;16.23;4.40;;;;;;;13.82;60.35;102782.88;4968465;28;20034;-74
2023/05/18 10:48:39;;;;;;;11.75;4.15;;;;;;;13.88;58.89;102779.91;4975092;28;20055;-72
2023/05/18 10:51:06;;;;;;;9.98;4.03;;;;;;;14.47;58.73;102769.97;4968328;28;20046;-72
2023/05/18 10:53:35;;;;;;;8.38;3.72;;;;;;;15.10;58.30;102769.50;4968563;28;20566;-75
2023/05/18 10:56:01;;;;;;;13.95;4.30;;;;;;;14.94;57.64;102766.75;4965968;28;20039;-72
2023/05/18 10:58:34;;;;;;;18.00;5.18;;;;;;;14.70;55.15;102763.47;4983362;28;20031;-71
2023/05/18 11:01:05;;;;;;;14.65;4.05;;;;;;;14.87;57.45;102762.66;4978764;28;20035;-73
2023/05/18 11:03:32;;;;;;;15.23;4.77;;;;;;;13.87;60.45;102772.81;4970345;28;20039;-76
2023/05/18 11:06:07;;;;;;;9.93;4.25;;;;;;;13.99;58.53;102758.81;4965879;28;20035;-73
2023/05/18 11:08:42;;;;;;;12.98;4.68;;;;;;;14.36;58.85;102761.56;4980817;28;20043;-73
2023/05/18 11:11:08;;;;;;;11.52;4.35;;;;;;;14.24;60.74;102763.88;4968658;28;20093;-72
2023/05/18 11:13:35;;;;;;;16.75;4.82;;;;;;;14.61;57.03;102754.09;4954248;28;20195;-72
2023/05/18 11:16:04;;;;;;;14.07;4.28;;;;;;;14.45;60.33;102756.59;4965654;28;20135;-75
2023/05/18 11:18:40;;;;;;;;;;;;;;;14.86;61.69;102752.81;4978168;28;20863;-74
2023/05/18 11:21:40;;;;;;;14.07;4.65;;;;;;;14.08;58.38;102762.88;4975776;28;20065;-73
2023/05/18 11:24:18;;;;;;;12.98;4.65;;;;;;;14.16;60.64;102747.31;4977686;28;20141;-75
2023/05/18 11:26:46;;;;;;;13.02;4.70;;;;;;;14.59;57.80;102745.22;4983866;28;20129;-75